createdAt,value
2023-05-10T00:02:57.765Z,98842.31
2023-05-10T00:07:59.089Z,98835.97
2023-05-10T00:13:00.535Z,98829.27
2023-05-10T00:18:01.949Z,98828.73
2023-05-10T00:23:03.292Z,98826.67
2023-05-10T00:28:04.793Z,98825.63
2023-05-10T00:33:06.303Z,98821.85
2023-05-10T00:38:07.653Z,98817.88
2023-05-10T00:43:08.947Z,98813.23
2023-05-10T00:48:10.513Z,98815.40
2023-05-10T00:53:12.613Z,98816.18
2023-05-10T00:58:14.368Z,98812.01
2023-05-10T01:03:16.065Z,98811.93
2023-05-10T01:08:17.749Z,98803.48
2023-05-10T01:13:41.354Z,98802.89
2023-05-10T01:18:44.571Z,98799.39
2023-05-10T01:23:54.765Z,98796.11
2023-05-10T01:29:26.456Z,98790.63
2023-05-10T01:34:35.528Z,98791.30
2023-05-10T01:39:58.597Z,98790.56
2023-05-10T01:45:13.191Z,98791.38
2023-05-10T01:50:25.119Z,98785.67
2023-05-10T01:55:32.603Z,98781.33
2023-05-10T02:00:35.978Z,98776.00
2023-05-10T02:05:39.431Z,98775.75
2023-05-10T02:10:42.918Z,98774.64
2023-05-10T02:15:48.409Z,98772.65
2023-05-10T02:20:52.781Z,98771.17
2023-05-10T02:25:56.803Z,98765.11
2023-05-10T02:30:58.276Z,98761.55
2023-05-10T02:36:08.076Z,98762.73
2023-05-10T02:41:23.268Z,98761.48
2023-05-10T02:46:24.652Z,98762.89
2023-05-10T02:51:31.975Z,98769.09
2023-05-10T02:56:36.237Z,98767.13
2023-05-10T03:01:37.467Z,98768.38
2023-05-10T03:06:38.769Z,98769.98
2023-05-10T03:11:43.084Z,98769.36
2023-05-10T03:16:52.830Z,98766.48
2023-05-10T03:21:59.135Z,98765.10
2023-05-10T03:27:03.238Z,98764.41
2023-05-10T03:32:04.614Z,98764.34
2023-05-10T03:37:06.574Z,98760.17
2023-05-10T03:42:08.213Z,98756.38
2023-05-10T03:47:09.897Z,98754.95
2023-05-10T03:53:10.973Z,98753.17
2023-05-10T03:59:32.153Z,98751.55
2023-05-10T04:04:53.759Z,98754.14
2023-05-10T04:09:55.427Z,98752.82
2023-05-10T04:14:57.754Z,98757.06
2023-05-10T04:19:58.969Z,98759.41
2023-05-10T04:25:00.481Z,98755.88
2023-05-10T04:30:01.735Z,98750.39
2023-05-10T04:35:05.053Z,98757.73
2023-05-10T04:40:06.905Z,98758.23
2023-05-10T04:45:09.872Z,98760.54
2023-05-10T04:51:11.029Z,98762.98
2023-05-10T04:57:32.191Z,98766.18
2023-05-10T05:03:53.264Z,98759.98
2023-05-10T05:10:14.460Z,98757.67
2023-05-10T05:16:35.673Z,98751.91
2023-05-10T05:21:57.162Z,98752.95
2023-05-10T05:27:58.391Z,98759.39
2023-05-10T05:34:19.723Z,98755.01
2023-05-10T05:40:40.664Z,98760.30
2023-05-10T05:47:01.683Z,98754.52
2023-05-10T05:53:22.581Z,98755.56
2023-05-10T05:59:53.572Z,98748.25
2023-05-10T06:06:14.591Z,98746.13
2023-05-10T06:12:35.633Z,98744.02
2023-05-10T06:18:12.495Z,98746.48
2023-05-10T06:23:13.697Z,98748.25
2023-05-10T06:28:15.008Z,98750.77
2023-05-10T06:33:16.549Z,98747.70
2023-05-10T06:38:17.790Z,98745.00
2023-05-10T06:43:19.009Z,98743.13
2023-05-10T06:48:20.353Z,98740.27
2023-05-10T06:53:21.740Z,98742.31
2023-05-10T06:58:23.292Z,98746.89
2023-05-10T07:03:24.720Z,98744.64
2023-05-10T07:08:26.182Z,98735.95
2023-05-10T07:13:27.560Z,98730.73
2023-05-10T07:18:29.335Z,98733.70
2023-05-10T07:23:30.895Z,98734.52
2023-05-10T07:28:32.127Z,98742.19
2023-05-10T07:33:33.482Z,98731.23
2023-05-10T07:38:38.934Z,98729.17
2023-05-10T07:43:41.625Z,98729.10
2023-05-10T07:48:42.837Z,98730.97
2023-05-10T07:53:44.079Z,98721.67
2023-05-10T07:58:45.512Z,98725.33
2023-05-10T08:04:46.858Z,98721.66
2023-05-10T08:10:18.507Z,98717.68
2023-05-10T08:15:20.059Z,98718.89
2023-05-10T08:20:21.547Z,98725.50
2023-05-10T08:25:22.903Z,98719.17
2023-05-10T08:30:24.207Z,98714.61
2023-05-10T08:35:25.447Z,98723.96
2023-05-10T08:40:26.956Z,98716.46
2023-05-10T08:45:33.090Z,98723.59
2023-05-10T08:50:37.014Z,98716.17
2023-05-10T08:55:39.296Z,98718.10
2023-05-10T09:00:40.963Z,98712.05
2023-05-10T09:05:42.776Z,98714.11
2023-05-10T09:10:44.911Z,98712.13
2023-05-10T09:15:46.580Z,98702.89
2023-05-10T09:20:48.888Z,98708.00
2023-05-10T09:26:03.731Z,98701.34
2023-05-10T09:31:05.192Z,98705.64
2023-05-10T09:36:09.830Z,98704.87
2023-05-10T09:41:22.356Z,98714.11
2023-05-10T09:46:24.737Z,98714.80
2023-05-10T09:51:27.433Z,98706.39
2023-05-10T09:56:37.948Z,98703.42
2023-05-10T10:01:39.862Z,98699.35
2023-05-10T10:06:41.157Z,98698.20
2023-05-10T10:11:42.594Z,98692.11
2023-05-10T10:16:59.497Z,98685.94
2023-05-10T10:22:06.101Z,98692.79
2023-05-10T10:27:29.123Z,98684.19
2023-05-10T10:32:50.527Z,98675.25
2023-05-10T10:37:51.866Z,98668.55
2023-05-10T10:42:54.541Z,98673.44
2023-05-10T10:48:22.206Z,98667.92
2023-05-10T10:53:26.901Z,98667.83
2023-05-10T10:58:34.456Z,98668.05
2023-05-10T11:03:38.478Z,98667.67
2023-05-10T11:08:44.395Z,98667.09
2023-05-10T11:13:51.230Z,98658.28
2023-05-10T11:19:02.149Z,98644.66
2023-05-10T11:24:13.860Z,98642.34
2023-05-10T11:29:16.314Z,98637.45
2023-05-10T11:34:25.818Z,98637.52
2023-05-10T11:39:31.967Z,98637.08
2023-05-10T11:44:33.694Z,98632.80
2023-05-10T11:49:34.929Z,98624.27
2023-05-10T11:54:36.347Z,98632.57
2023-05-10T11:59:37.676Z,98634.04
2023-05-10T12:04:39.238Z,98631.80
2023-05-10T12:09:45.274Z,98631.73
2023-05-10T12:14:50.830Z,98640.19
2023-05-10T12:19:51.861Z,98636.03
2023-05-10T12:24:53.145Z,98639.98
2023-05-10T12:29:55.193Z,98634.05
2023-05-10T12:34:58.144Z,98635.95
2023-05-10T12:39:59.501Z,98631.42
2023-05-10T12:45:00.781Z,98626.06
2023-05-10T12:51:01.848Z,98621.85
2023-05-10T12:57:22.880Z,98620.14
2023-05-10T13:03:46.640Z,98610.69
2023-05-10T13:10:07.716Z,98610.16
2023-05-10T13:16:28.861Z,98606.56
2023-05-10T13:22:50.630Z,98596.35
2023-05-10T13:29:13.149Z,98596.67
2023-05-10T13:35:34.312Z,98596.02
2023-05-10T13:41:55.833Z,98587.96
2023-05-10T13:47:56.919Z,98579.86
2023-05-10T13:54:18.091Z,98582.22
2023-05-10T14:00:39.128Z,98568.58
2023-05-10T14:06:00.717Z,98568.39
2023-05-10T14:11:02.208Z,98564.13
2023-05-10T14:16:03.929Z,98560.85
2023-05-10T14:21:05.413Z,98558.95
2023-05-10T14:32:11.971Z,98556.96
2023-05-10T14:37:22.203Z,98550.61
2023-05-10T14:42:43.611Z,98550.48
2023-05-10T14:48:37.379Z,98548.39
2023-05-10T14:55:39.712Z,98543.98
2023-05-10T15:02:22.024Z,98544.80
2023-05-10T15:08:43.759Z,98546.42
2023-05-10T15:15:05.174Z,98542.86
2023-05-10T15:21:35.617Z,98549.48
2023-05-10T15:27:26.959Z,98548.18
2023-05-10T15:32:37.529Z,98546.09
2023-05-10T15:44:29.081Z,98551.59
2023-05-10T15:49:30.545Z,98557.01
2023-05-10T15:55:31.740Z,98551.84
2023-05-10T16:01:52.868Z,98549.23
2023-05-10T16:08:23.994Z,98549.02
2023-05-10T16:14:44.891Z,98550.60
2023-05-10T16:21:06.163Z,98560.58
2023-05-10T16:27:27.285Z,98556.44
2023-05-10T16:33:48.343Z,98555.18
2023-05-10T16:39:16.045Z,98555.02
2023-05-10T16:44:18.966Z,98553.35
2023-05-10T16:49:23.671Z,98551.98
2023-05-10T16:55:26.594Z,98556.70
2023-05-10T17:00:48.401Z,98566.13
2023-05-10T17:06:49.527Z,98564.02
2023-05-10T17:13:10.776Z,98569.39
2023-05-10T17:19:32.041Z,98569.05
2023-05-10T17:25:53.186Z,98569.99
2023-05-10T17:32:14.223Z,98570.59
2023-05-10T17:38:35.370Z,98571.85
2023-05-10T17:44:56.488Z,98577.84
2023-05-10T17:51:17.618Z,98579.19
2023-05-10T17:57:38.873Z,98583.55
2023-05-10T18:04:00.118Z,98590.13
2023-05-10T18:18:03.224Z,98600.27
2023-05-10T18:24:34.665Z,98605.44
2023-05-10T18:29:59.979Z,98613.19
2023-05-10T18:47:37.854Z,98625.26
2023-05-10T18:52:39.074Z,98637.06
2023-05-10T18:58:40.169Z,98645.80
2023-05-10T19:04:01.600Z,98652.89
2023-05-10T19:09:03.329Z,98656.26
2023-05-10T19:14:05.648Z,98655.80
2023-05-10T19:19:09.668Z,98660.75
2023-05-10T19:24:12.021Z,98660.19
2023-05-10T19:29:22.638Z,98661.48
2023-05-10T19:41:24.774Z,98667.36
2023-05-10T19:47:45.715Z,98675.16
2023-05-10T19:54:06.606Z,98672.53
2023-05-10T20:00:27.594Z,98679.71
2023-05-10T20:06:48.562Z,98679.04
2023-05-10T20:13:09.832Z,98683.43
2023-05-10T20:19:30.938Z,98687.52
2023-05-10T20:25:51.987Z,98689.04
2023-05-10T20:32:12.852Z,98688.39
2023-05-10T20:38:33.851Z,98692.19
2023-05-10T20:44:54.784Z,98694.20
2023-05-10T20:51:15.765Z,98696.63
2023-05-10T20:56:44.387Z,98701.34
2023-05-10T21:01:45.624Z,98694.30
2023-05-10T21:06:47.765Z,98701.84
2023-05-10T21:12:49.572Z,98700.62
2023-05-10T21:18:10.955Z,98702.78
2023-05-10T21:23:12.344Z,98707.77
2023-05-10T21:28:13.863Z,98704.58
2023-05-10T21:34:15.133Z,98708.04
2023-05-10T21:40:37.885Z,98707.80
2023-05-10T21:46:59.850Z,98711.70
2023-05-10T21:53:22.622Z,98717.00
2023-05-10T21:59:43.605Z,98719.14
2023-05-10T22:06:14.566Z,98723.69
2023-05-10T22:11:35.798Z,98720.09
2023-05-10T22:16:36.973Z,98726.45
2023-05-10T22:22:05.166Z,98735.11
2023-05-10T22:27:06.591Z,98739.02
2023-05-10T22:32:08.082Z,98736.70
2023-05-10T22:37:09.284Z,98737.50
2023-05-10T22:42:10.733Z,98744.09
2023-05-10T22:47:12.153Z,98742.23
2023-05-10T22:52:13.616Z,98742.84
2023-05-10T22:57:15.670Z,98748.43
2023-05-10T23:02:17.019Z,98756.38
2023-05-10T23:07:18.521Z,98754.97
2023-05-10T23:12:20.178Z,98755.11
2023-05-10T23:17:25.322Z,98754.20
2023-05-10T23:22:26.533Z,98756.59
2023-05-10T23:27:29.576Z,98757.55
2023-05-10T23:32:52.216Z,98752.35
2023-05-10T23:38:54.088Z,98754.80
2023-05-10T23:44:09.642Z,98753.86
2023-05-10T23:50:12.141Z,98753.80
2023-05-10T23:56:33.148Z,98755.79
